Warning: A non-numeric value encountered in /home/httpd/v/a/l/valdefench57sgz/valdefench57sgz.franceserv.com/weather28/wsFunctions.php on line 312
WARNING - Change wsUserSettings.php: $SITE["topfolder"] from : /home/httpd/v/a/l/valdefench57sgz/valdefench57sgz.franceserv.com/weather28/ to: weather28/
  Séremange Erzange, Lorraine, Moselle 57, France.  (25 km au Nord de Metz et 10 km au Sud-Ouest de Thionville)    Latitude : 49° 18' 59'' Nord    Longitude : 6° 5' 33'' Est    Altitude : 210 Mètres  



My webcam FOSCAM plus d'informations My webcam FOSCAM


My webcam 2 facing SUD plus d'informations My webcam 2 facing SUD


Visitez nos sites météorologiques autres:

Cartes by Infoclimat

Releves de station MF

Site partenaire

MeteoTemplate

BLOG/MeteoTemplate.com

MK meteokit

HomeWeatherStation WU

Home MeteoLive Station 2

Radar Meteox

Radar Meteo60

carte MétéoAlerte

Image satellite par ARPAL_meteoFermo

Data Infoclimat.fr

Radars Pluies NE

Vigilance meteo FR

Keraunos

Carte Isobares

Tags GFS

Bracknell Animation

Air Lorraine



Pas de vigilance météorologique particulière.    Il n'y a aucun avertissement

Rapports METAR proximité

   
LFJL - Metz
Mise à jour: 16-12-2018 20:30
Brouillard, Nuageux  
Brouillard, Nuageux  
   Vent: Sud Sud Est 22.2 km/h
Vent: Sud Sud Est 22.2 km/h
Température: 3°C
éolien: -2°C
Point de rosée: 3°C
Humidité: 100%
Baromètre: 1014 hPa
Nuages: Overcast
visibilité: 5 km
Détails des nuages: Partiellement Nuageux 200 ft,
Nuageux 2500 ft
LFJL 161930Z AUTO 16012KT 4500 BR BKN002/// OVC025/// 03/03 Q1014 TEMPO
ELLX - Luxemburg
Mise à jour: 16-12-2018 20:20
Brouillard, Partiellement Nuageux  
Brouillard, Partiellement Nuageux  
   Vent: Sud 9.3 km/h
Vent: Sud 9.3 km/h
Température: 2°C
éolien: -1°C
Point de rosée: 2°C
Humidité: 100%
Baromètre: 1013 hPa
Nuages: Mostly Cloudy
visibilité: 0 km
Détails des nuages: Partiellement Nuageux 0 ft
ELLX 161920Z 17005KT 0150 R24/0550N FG BKN000 02/02 Q1013 NOSIG
EDDR - Sarrbrucken
Mise à jour: 16-12-2018 20:20
Brouillard  
Brouillard  
   Vent: Sud 7.4 km/h
Vent: Sud 7.4 km/h
Température: 3°C
éolien: 1°C
Point de rosée: 3°C
Humidité: 100%
Baromètre: 1014 hPa
visibilité: 0 km
Détails des nuages: Nuageux ft
EDDR 161920Z 18004KT 140V220 0300 R27/0500N FG VV/// 03/03 Q1014 R27/29//95 NOSIG
LFST - Strasbourg
Mise à jour: 16-12-2018 20:30
Brouillard, Nuageux  
Brouillard, Nuageux  
   Vent: Ouest Sud Ouest 1.9 km/h
Vent: Ouest Sud Ouest 1.9 km/h
Température: 1°C
Point de rosée: 1°C
Humidité: 100%
Baromètre: 1015 hPa
Nuages: Overcast
visibilité: 4 km
Détails des nuages: Nuageux 800 ft
LFST 161930Z AUTO 25001KT 3600 BR OVC008 01/01 Q1015 TEMPO 0200 FG VV///
  

Script développé par  Saratoga-weather.org Adapté pour le modèle par  Weerstation Leuven

Vous trouverez notre info météo Également à:

UK Metoffice

WeatherCloud

Weather Underground

French Weather Network

AWEKAS

WeatherlinkIP

Citizen Weather Observer Program (CWOP)

HAMweather, WeatherForYou, PWS Weather

Anything Weather

Infoclimat

lineaMeteo

meteonetwork

meteociel

stationmeteo

meteobelgique

wedaal24

wsmap

arps

weatherbug

wetterstationen

windgurucz

         

Équipement que nous utilisons:

Station de Météo
Davis VP2 Plus (Wireless)

Programme Météo
Meteohub

Ordinateur Météo
MeteoLink LAN

Provider
FranceServ Hébergement

Davis VP2 Plus (Wireless)

Meteohub

MeteoLink LAN

FranceServ Hébergement